Data for 10/07/2008

Time Sea-Level Adjusted Pressure Absolute Pressure Temperature Relative Humidity Dew Point   
(mb) (inHg) (mb) (inHg) (C) (F) (%) (C) (F)
00:05 1022 30.18 851 25.13 6.5 43.7 47 -4 24.9
00:10 1022 30.18 852 25.16 6.4 43.4 47 -4.1 24.6
00:15 1022 30.18 851 25.13 6.4 43.6 47 -4 24.7
00:20 1022 30.18 851 25.13 6.3 43.4 46 -4.3 24.3
00:25 1022 30.18 851 25.13 6.5 43.7 47 -4.1 24.6
00:30 1022 30.18 851 25.13 6.5 43.8 46 -4.3 24.3
00:35 1022 30.18 851 25.13 6.6 43.9 46 -4.1 24.7
00:40 1022 30.18 851 25.13 6.4 43.5 48 -3.9 25
00:45 1022 30.18 851 25.13 6.3 43.4 48 -4 24.8
00:50 1022 30.18 851 25.13 6.4 43.4 48 -3.8 25.1
00:55 1022 30.18 851 25.13 6.4 43.5 48 -3.8 25.2
01:00 1022 30.18 851 25.13 6.4 43.5 47 -4 24.8
01:05 1022 30.18 851 25.13 6.7 44 47 -3.9 25
01:10 1022 30.18 851 25.13 6.8 44.3 46 -3.9 24.9
01:15 1022 30.18 851 25.13 6.9 44.4 47 -3.7 25.3
01:20 1022 30.18 851 25.13 6.7 44 48 -3.6 25.5
01:25 1022 30.18 851 25.13 6.5 43.7 48 -3.7 25.3
01:30 1022 30.18 851 25.13 6.5 43.7 48 -3.8 25.2
01:35 1022 30.18 851 25.13 6.5 43.7 48 -3.7 25.4
01:40 1022 30.18 851 25.13 6.5 43.6 48 -3.7 25.3
01:45 1022 30.18 851 25.13 6.1 43 51 -3.2 26.2
01:50 1022 30.18 851 25.13 5.8 42.5 51 -3.5 25.7
01:55 1022 30.18 851 25.13 6 42.7 51 -3.5 25.7
02:00 1022 30.18 851 25.13 6.1 43 51 -3.2 26.2
02:05 1022 30.18 851 25.13 6.2 43.2 48 -3.9 24.9
02:10 1022 30.18 851 25.13 6.5 43.7 49 -3.6 25.5
02:15 1022 30.18 851 25.13 6.8 44.2 49 -3.3 26.1
02:20 1022 30.18 851 25.13 6.4 43.6 50 -3.2 26.2
02:25 1022 30.18 851 25.13 6.1 42.9 52 -3 26.6
02:30 1022 30.18 851 25.13 5.7 42.3 53 -3.2 26.3
02:35 1022 30.18 851 25.13 5.9 42.6 51 -3.4 26
02:40 1022 30.18 851 25.13 5.9 42.6 52 -3.2 26.2
02:45 1022 30.18 851 25.13 5.7 42.3 53 -3 26.5
02:50 1022 30.18 851 25.13 5.8 42.5 51 -3.6 25.6
02:55 1022 30.18 851 25.13 6.2 43.1 51 -3.1 26.4
03:00 1022 30.18 851 25.13 6.2 43.2 51 -3.2 26.3
03:05 1022 30.18 851 25.13 6 42.9 52 -3 26.7
03:10 1022 30.18 851 25.13 5.9 42.6 53 -3 26.6
03:15 1022 30.18 851 25.13 5.8 42.5 52 -3.2 26.3
03:20 1022 30.18 851 25.13 6 42.8 52 -3 26.6
03:25 1022 30.18 851 25.13 5.8 42.4 53 -3 26.5
03:30 1022 30.18 851 25.13 5.7 42.3 53 -3.1 26.5
03:35 1022 30.18 851 25.13 5.6 42.1 55 -2.7 27.2
03:40 1022 30.18 851 25.13 5.8 42.4 52 -3.2 26.2
03:45 1022 30.18 851 25.13 5.9 42.6 52 -3.3 26.1
03:50 1022 30.18 851 25.13 6 42.8 51 -3.3 26.1
03:55 1022 30.18 851 25.13 6.1 43 52 -3 26.6
04:00 1022 30.18 851 25.13 5.7 42.2 55 -2.7 27.1
04:05 1022 30.18 851 25.13 5.4 41.6 55 -2.9 26.8
04:10 1022 30.18 851 25.13 5.2 41.4 56 -2.8 27
04:15 1022 30.18 851 25.13 4.9 40.9 57 -2.9 26.7
04:20 1022 30.18 851 25.13 5 41 57 -2.8 27
04:25 1022 30.18 851 25.13 4.7 40.4 58 -2.8 26.9
04:30 1022 30.18 851 25.13 4.6 40.3 57 -3.1 26.4
04:35 1022 30.18 851 25.13 4.9 40.8 56 -3.2 26.2
04:40 1022 30.18 851 25.13 5.1 41.1 56 -3 26.6
04:45 1022 30.18 851 25.13 5.2 41.3 54 -3.3 26
04:50 1022 30.18 851 25.13 5.2 41.4 56 -2.7 27.1
04:55 1022 30.18 851 25.13 5 41.1 56 -3 26.5
05:00 1021 30.15 851 25.13 5 41 57 -2.7 27.1
05:05 1021 30.15 851 25.13 4.7 40.4 58 -2.8 26.9
05:10 1022 30.18 851 25.13 4.8 40.6 57 -2.9 26.7
05:15 1022 30.18 851 25.13 4.9 40.9 58 -2.5 27.5
05:20 1021 30.15 851 25.13 4.7 40.5 58 -2.9 26.8
05:25 1021 30.15 851 25.13 5.1 41.1 55 -3.1 26.4
05:30 1021 30.15 851 25.13 5.3 41.5 57 -2.5 27.5
05:35 1021 30.15 851 25.13 5.2 41.3 54 -3.2 26.2
05:40 1021 30.15 851 25.13 5.8 42.4 54 -2.7 27.1
05:45 1022 30.18 851 25.13 5.9 42.6 54 -2.8 26.9
05:50 1021 30.15 851 25.13 5.9 42.7 54 -2.6 27.2
05:55 1021 30.15 851 25.13 5.9 42.6 55 -2.5 27.5
06:00 1022 30.18 851 25.13 5.2 41.3 58 -2.3 27.8
06:05 1021 30.15 851 25.13 5.2 41.3 57 -2.8 27
06:10 1021 30.15 851 25.13 5.6 42 54 -3 26.6
06:15 1021 30.15 850 25.1 6.1 42.9 55 -2.4 27.7
06:20 1021 30.15 850 25.1 5.9 42.7 54 -2.5 27.4
06:25 1021 30.15 850 25.1 6.1 42.9 52 -2.9 26.7
06:30 1021 30.15 850 25.1 6.4 43.6 52 -2.7 27.1
06:35 1021 30.15 850 25.1 6.4 43.6 52 -2.6 27.2
06:40 1021 30.15 850 25.1 6.1 43 55 -2.2 28.1
06:45 1021 30.15 850 25.1 5.5 42 57 -2.2 28.1
06:50 1021 30.15 850 25.1 5.5 42 57 -2.3 27.9
06:55 1021 30.15 850 25.1 5.6 42 55 -2.9 26.8
07:00 1021 30.15 850 25.1 6.1 42.9 55 -2.4 27.7
07:05 1021 30.15 850 25.1 6 42.7 56 -2.1 28.3
07:10 1021 30.15 850 25.1 5.7 42.2 57 -2.1 28.2
07:15 1021 30.15 850 25.1 5.6 42 59 -1.9 28.6
07:20 1021 30.15 850 25.1 5.4 41.7 58 -2.1 28.2
07:25 1021 30.15 850 25.1 5.6 42.1 57 -2.2 28
07:30 1021 30.15 850 25.1 5.8 42.4 56 -2.2 28
07:35 1021 30.15 850 25.1 6.2 43.1 55 -2.2 28
07:40 1021 30.15 850 25.1 6.8 44.2 52 -2.3 27.9
07:45 1021 30.15 850 25.1 6.9 44.5 53 -2 28.4
07:50 1021 30.15 850 25.1 6.3 43.3 56 -1.8 28.8
07:55 1021 30.15 850 25.1 6.1 43 57 -1.7 29
08:00 1021 30.15 850 25.1 6.3 43.3 56 -1.8 28.8
08:05 1021 30.15 850 25.1 6.5 43.7 54 -2 28.4
08:10 1020 30.12 850 25.1 6.7 44 54 -1.9 28.5
08:15 1020 30.12 850 25.1 7.1 44.7 52 -2 28.4
08:20 1020 30.12 850 25.1 7.7 45.9 50 -2.1 28.2
08:25 1020 30.12 850 25.1 8.2 46.8 48 -2.1 28.1
08:30 1020 30.12 850 25.1 8.1 46.6 50 -1.8 28.8
08:35 1020 30.12 850 25.1 8.3 47 49 -1.8 28.7
08:40 1020 30.12 850 25.1 8.5 47.4 49 -1.5 29.4
08:45 1020 30.12 850 25.1 8.6 47.5 53 -0.4 31.2
08:50 1020 30.12 849 25.07 8.4 47.1 52 -0.8 30.6
08:55 1020 30.12 849 25.07 8.7 47.6 52 -0.7 30.8
09:00 1020 30.12 849 25.07 9 48.2 51 -0.7 30.8
09:05 1020 30.12 849 25.07 9.2 48.5 51 -0.5 31
09:10 1020 30.12 849 25.07 9.7 49.5 48 -0.6 30.9
09:15 1020 30.12 849 25.07 10.5 50.9 47 -0.3 31.5
09:20 1020 30.12 849 25.07 10.4 50.8 49 0.2 32.3
09:25 1020 30.12 849 25.07 10.5 51 48 0.1 32.2
09:30 1020 30.12 849 25.07 11.3 52.4 46 0.1 32.1
09:35 1020 30.12 849 25.07 12.4 54.3 43 0.1 32.2
09:40 1020 30.12 849 25.07 13.1 55.5 42 0.4 32.8
09:45 1020 30.12 849 25.07 12.4 54.3 44 0.4 32.8
09:50 1020 30.12 849 25.07 12.2 53.9 43 0.1 32.2
09:55 1020 30.12 849 25.07 12.1 53.8 44 0.2 32.4
10:00 1020 30.12 849 25.07 12.3 54.1 45 0.8 33.4
10:05 1020 30.12 849 25.07 12.5 54.4 45 1 33.7
10:10 1020 30.12 849 25.07 12.6 54.7 45 1.1 34
10:15 1020 30.12 849 25.07 12.9 55.2 45 1.3 34.3
10:20 1020 30.12 849 25.07 13.1 55.6 43 0.9 33.6
10:25 1020 30.12 849 25.07 13.5 56.2 43 1.3 34.3
10:30 1020 30.12 849 25.07 13.9 57 37 -0.5 31.1
10:35 1020 30.12 849 25.07 14.5 58 40 1 33.8
10:40 1020 30.12 849 25.07 14.9 58.7 40 1.5 34.7
10:45 1020 30.12 849 25.07 15.2 59.4 38 1.2 34.2
10:50 1020 30.12 849 25.07 15.1 59.1 37 0.7 33.3
10:55 1020 30.12 849 25.07 15.2 59.3 34 -0.7 30.8
11:00 1019 30.09 849 25.07 15.7 60.2 32 -0.7 30.7
11:05 1019 30.09 849 25.07 15.9 60.6 30 -1.5 29.2
11:10 1019 30.09 848 25.04 16 60.8 30 -1.4 29.5
11:15 1019 30.09 848 25.04 16.3 61.4 30 -1 30.3
11:20 1019 30.09 848 25.04 16.5 61.7 28 -2.1 28.2
11:25 1019 30.09 848 25.04 16.8 62.3 26 -2.7 27.2
11:30 1019 30.09 848 25.04 16.9 62.3 26 -2.6 27.3
11:35 1019 30.09 848 25.04 16.9 62.4 25 -2.9 26.8
11:40 1019 30.09 848 25.04 17.1 62.7 25 -2.8 26.9
11:45 1019 30.09 848 25.04 17 62.7 26 -2.5 27.5
11:50 1019 30.09 848 25.04 17 62.6 27 -2.3 27.9
11:55 1019 30.09 848 25.04 17.4 63.3 26 -2.4 27.7
12:00 1019 30.09 848 25.04 17.4 63.4 25 -2.7 27.2
12:05 1019 30.09 848 25.04 17.2 63 25 -2.7 27.1
12:10 1019 30.09 848 25.04 17.1 62.7 25 -3 26.6
12:15 1018 30.06 848 25.04 17.1 62.8 26 -2.7 27.2
12:20 1018 30.06 848 25.04 17.4 63.4 25 -2.4 27.6
12:25 1018 30.06 847 25.01 17.5 63.6 26 -1.9 28.5
12:30 1018 30.06 847 25.01 18 64.4 25 -2 28.4
12:35 1018 30.06 847 25.01 18.2 64.8 26 -1.3 29.6
12:40 1018 30.06 847 25.01 18.5 65.2 25 -1.7 29
12:45 1018 30.06 847 25.01 18.9 66.1 23 -2.2 28
12:50 1018 30.06 847 25.01 19.2 66.5 23 -2.5 27.6
12:55 1018 30.06 847 25.01 19 66.2 23 -2.4 27.7
13:00 1018 30.06 847 25.01 19.2 66.5 23 -2.1 28.2
13:05 1018 30.06 847 25.01 19.2 66.5 23 -2.1 28.3
13:10 1018 30.06 847 25.01 19.2 66.5 23 -2.4 27.6
13:15 1018 30.06 847 25.01 19.1 66.4 24 -1.7 29
13:20 1017 30.03 847 25.01 19.7 67.4 23 -1.8 28.8
13:25 1017 30.03 847 25.01 19.5 67.1 24 -1.7 29
13:30 1017 30.03 846 24.98 19.2 66.5 25 -1.4 29.4
13:35 1017 30.03 846 24.98 19 66.1 25 -1.6 29.2
13:40 1017 30.03 846 24.98 19.1 66.4 24 -1.5 29.3
13:45 1017 30.03 846 24.98 19.5 67.1 23 -1.9 28.5
13:50 1017 30.03 846 24.98 19.4 67 23 -1.9 28.5
13:55 1017 30.03 846 24.98 19.9 67.8 23 -1.5 29.2
14:00 1017 30.03 846 24.98 20 68 24 -1 30.2
14:05 1017 30.03 846 24.98 19.7 67.5 23 -1.7 28.9
14:10 1017 30.03 846 24.98 19.5 67.1 24 -1.3 29.6
14:15 1016 30 846 24.98 19.4 66.9 24 -1.6 29
14:20 1016 30 846 24.98 18.9 66.1 25 -1.4 29.5
14:25 1016 30 846 24.98 18.9 66 25 -1.3 29.7
14:30 1016 30 845 24.95 18.8 65.8 26 -0.9 30.3
14:35 1016 30 845 24.95 18.8 65.8 25 -1.6 29
14:40 1016 30 845 24.95 18.9 65.9 25 -1.3 29.6
14:45 1016 30 845 24.95 19.4 66.8 24 -1.5 29.3
14:50 1016 30 845 24.95 20.1 68.1 24 -1.1 30
14:55 1016 30 845 24.95 20.2 68.4 23 -1.4 29.4
15:00 1016 30 845 24.95 19.9 67.8 23 -1.5 29.4
15:05 1016 30 845 24.95 19.8 67.7 24 -1 30.2
15:10 1016 30 845 24.95 20 68.1 24 -1.2 29.8
15:15 1016 30 845 24.95 19.8 67.7 24 -0.9 30.4
15:20 1016 30 845 24.95 20 67.9 24 -1.2 29.8
15:25 1016 30 845 24.95 20.5 68.8 22 -1.8 28.8
15:30 1015 29.97 845 24.95 20.6 69.1 23 -1.4 29.6
15:35 1015 29.97 845 24.95 20.1 68.1 23 -1.3 29.6
15:40 1015 29.97 845 24.95 19.9 67.8 23 -1.5 29.2
15:45 1015 29.97 845 24.95 20.1 68.1 23 -1.5 29.3
15:50 1015 29.97 845 24.95 20.2 68.4 24 -0.8 30.6
15:55 1015 29.97 844 24.92 20.6 69.1 22 -1.5 29.3
16:00 1015 29.97 844 24.92 20.4 68.6 22 -1.8 28.7
16:05 1015 29.97 844 24.92 20.4 68.7 22 -2.1 28.3
16:10 1015 29.97 844 24.92 20.3 68.6 22 -1.9 28.6
16:15 1015 29.97 844 24.92 20.2 68.4 24 -0.9 30.3
16:20 1015 29.97 844 24.92 20.2 68.3 24 -1 30.3
16:25 1015 29.97 844 24.92 19.8 67.6 24 -1.1 30.1
16:30 1015 29.97 844 24.92 19.7 67.5 25 -1 30.2
16:35 1015 29.97 844 24.92 19.4 67 24 -1.7 29
16:40 1015 29.97 844 24.92 19.4 67 26 -0.6 30.8
16:45 1015 29.97 844 24.92 19.1 66.5 26 -0.6 30.9
16:50 1015 29.97 844 24.92 18.9 66 25 -1.5 29.4
16:55 1015 29.97 844 24.92 18.8 65.8 28 -0.2 31.7
17:00 1015 29.97 844 24.92 18.5 65.3 28 -0.4 31.3
17:05 1015 29.97 844 24.92 18.5 65.3 26 -1.1 30.1
17:10 1015 29.97 844 24.92 18.6 65.4 27 -0.8 30.5
17:15 1015 29.97 844 24.92 18.5 65.3 27 -0.6 31
17:20 1015 29.97 845 24.95 18.4 65.2 31 1.2 34.2
17:25 1016 30 845 24.95 15.9 60.5 44 3.7 38.7
17:30 1016 30 845 24.95 13.7 56.6 48 3 37.4
17:35 1016 30 845 24.95 13.3 56 49 2.8 37.1
17:40 1016 30 845 24.95 13.2 55.8 49 2.7 36.9
17:45 1016 30 846 24.98 13.2 55.7 50 3 37.3
17:50 1017 30.03 846 24.98 13.1 55.7 51 3.2 37.8
17:55 1017 30.03 846 24.98 13.2 55.7 51 3.3 37.9
18:00 1017 30.03 846 24.98 13.1 55.6 51 3.3 38
18:05 1017 30.03 846 24.98 13.1 55.5 51 3.1 37.7
18:10 1017 30.03 846 24.98 13.1 55.6 50 3.1 37.5
18:15 1017 30.03 847 25.01 13 55.4 51 3.2 37.7
18:20 1017 30.03 847 25.01 12.8 55.1 51 3.1 37.5
18:25 1018 30.06 847 25.01 12.8 55.1 50 2.8 37.1
18:30 1018 30.06 847 25.01 12.9 55.3 50 2.8 37.1
18:35 1018 30.06 847 25.01 13 55.3 50 2.9 37.2
18:40 1018 30.06 848 25.04 12.6 54.7 50 2.6 36.6
18:45 1019 30.09 848 25.04 12.5 54.5 49 2.1 35.7
18:50 1019 30.09 848 25.04 12.4 54.3 48 1.9 35.4
18:55 1019 30.09 848 25.04 12.3 54.1 48 1.8 35.2
19:00 1019 30.09 848 25.04 12.2 53.9 48 1.5 34.8
19:05 1019 30.09 848 25.04 12 53.7 48 1.5 34.6
19:10 1019 30.09 848 25.04 11.9 53.4 48 1.3 34.4
19:15 1019 30.09 848 25.04 11.8 53.2 48 1.3 34.3
19:20 1019 30.09 848 25.04 11.7 53.1 48 1.2 34.1
19:25 1019 30.09 848 25.04 11.7 53.1 48 1.2 34.1
19:30 1019 30.09 848 25.04 11.7 53.1 49 1.3 34.4
19:35 1019 30.09 848 25.04 11.8 53.2 48 1.3 34.3
19:40 1019 30.09 849 25.07 11.7 53.1 49 1.4 34.5
19:45 1019 30.09 849 25.07 11.6 52.8 50 1.4 34.6
19:50 1019 30.09 849 25.07 11.5 52.7 49 1.3 34.4
19:55 1019 30.09 849 25.07 11.5 52.6 50 1.3 34.4
20:00 1019 30.09 849 25.07 11.3 52.4 50 1.3 34.4
20:05 1020 30.12 849 25.07 11.3 52.3 50 1.2 34.1
20:10 1020 30.12 849 25.07 11.3 52.3 49 1.1 33.9
20:15 1020 30.12 849 25.07 11.3 52.3 50 1.1 34
20:20 1020 30.12 849 25.07 11.2 52.1 49 1 33.8
20:25 1020 30.12 849 25.07 11.1 51.9 50 1.1 33.9
20:30 1020 30.12 849 25.07 11 51.7 50 0.9 33.6
20:35 1020 30.12 849 25.07 11 51.7 49 0.8 33.5
20:40 1020 30.12 849 25.07 10.9 51.7 49 0.8 33.4
20:45 1020 30.12 849 25.07 10.9 51.7 50 0.9 33.6
20:50 1020 30.12 849 25.07 10.9 51.6 50 0.8 33.5
20:55 1020 30.12 849 25.07 10.9 51.6 50 0.9 33.7
21:00 1020 30.12 849 25.07 10.9 51.5 50 0.9 33.6
21:05 1020 30.12 849 25.07 10.8 51.4 50 0.9 33.5
21:10 1020 30.12 849 25.07 10.7 51.2 50 0.8 33.4
21:15 1020 30.12 849 25.07 10.6 51.1 49 0.5 32.9
21:20 1020 30.12 849 25.07 10.6 51.2 49 0.4 32.8
21:25 1020 30.12 849 25.07 10.7 51.2 47 -0.3 31.5
21:30 1020 30.12 849 25.07 10.6 51.2 46 -0.5 31
21:35 1020 30.12 849 25.07 10.6 51 43 -1.3 29.6
21:40 1020 30.12 849 25.07 10.5 50.9 43 -1.6 29.1
21:45 1020 30.12 849 25.07 10.4 50.7 43 -1.6 29.1
21:50 1020 30.12 849 25.07 10.3 50.5 43 -1.6 29.1
21:55 1020 30.12 849 25.07 10.2 50.3 44 -1.5 29.3
22:00 1020 30.12 849 25.07 10 50 45 -1.3 29.7
22:05 1020 30.12 850 25.1 9.8 49.7 46 -1.3 29.7
22:10 1020 30.12 849 25.07 9.6 49.4 47 -1.2 29.9
22:15 1020 30.12 850 25.1 9.4 49 46 -1.5 29.3
22:20 1020 30.12 850 25.1 9.3 48.7 46 -1.6 29.1
22:25 1020 30.12 850 25.1 9.1 48.4 43 -2.6 27.3
22:30 1021 30.15 850 25.1 9.1 48.3 40 -3.7 25.3
22:35 1021 30.15 850 25.1 9 48.3 40 -3.7 25.4
22:40 1021 30.15 850 25.1 9 48.2 41 -3.6 25.5
22:45 1021 30.15 850 25.1 9 48.1 41 -3.7 25.4
22:50 1021 30.15 850 25.1 8.9 48 40 -3.9 24.9
22:55 1021 30.15 850 25.1 8.9 48.1 40 -4 24.8
23:00 1021 30.15 850 25.1 9 48.1 40 -3.9 25
23:05 1021 30.15 850 25.1 8.9 48.1 40 -3.8 25.2
23:10 1021 30.15 850 25.1 8.8 47.8 40 -3.9 24.9
23:15 1021 30.15 850 25.1 8.7 47.6 40 -4.2 24.5
23:20 1021 30.15 850 25.1 8.6 47.5 41 -3.8 25.1
23:25 1021 30.15 850 25.1 8.5 47.4 40 -4.1 24.6
23:30 1021 30.15 850 25.1 8.5 47.2 41 -3.9 25
23:35 1021 30.15 850 25.1 8.3 47 42 -3.9 25
23:40 1021 30.15 850 25.1 8.2 46.7 42 -3.9 24.9
23:45 1021 30.15 850 25.1 8 46.4 42 -4 24.9
23:50 1021 30.15 850 25.1 7.9 46.2 43 -4 24.9
23:55 1021 30.15 850 25.1 7.8 46.1 43 -4 24.8
24:00 1021 30.15 850 25.1 7.6 45.7 43 -4 24.8